createdAt,value
2022-08-05T00:00:00.287Z,24.90
2022-08-05T00:02:28.669Z,24.90
2022-08-05T00:04:57.045Z,24.90
2022-08-05T00:07:58.762Z,24.90
2022-08-05T00:10:12.437Z,24.90
2022-08-05T00:12:55.778Z,24.90
2022-08-05T00:15:55.326Z,24.90
2022-08-05T00:18:21.440Z,24.90
2022-08-05T00:20:50.069Z,24.90
2022-08-05T00:23:31.064Z,24.80
2022-08-05T00:26:05.708Z,24.80
2022-08-05T00:28:33.323Z,24.80
2022-08-05T00:31:04.535Z,24.70
2022-08-05T00:34:53.635Z,24.70
2022-08-05T00:37:11.496Z,24.60
2022-08-05T00:39:14.030Z,24.60
2022-08-05T00:41:52.062Z,24.60
2022-08-05T00:44:30.946Z,24.60
2022-08-05T00:47:02.052Z,24.50
2022-08-05T00:49:32.743Z,24.50
2022-08-05T00:52:12.059Z,24.40
2022-08-05T00:54:39.373Z,24.40
2022-08-05T00:57:06.663Z,24.40
2022-08-05T00:59:42.026Z,24.40
2022-08-05T01:02:12.240Z,24.40
2022-08-05T01:04:42.217Z,24.40
2022-08-05T01:07:13.719Z,24.30
2022-08-05T01:09:42.632Z,24.30
2022-08-05T01:12:18.686Z,24.20
2022-08-05T01:14:58.306Z,24.20
2022-08-05T01:17:55.054Z,24.20
2022-08-05T01:20:52.656Z,24.20
2022-08-05T01:23:57.984Z,24.10
2022-08-05T01:26:48.036Z,24.10
2022-08-05T01:29:24.556Z,24.00
2022-08-05T01:31:59.095Z,24.00
2022-08-05T01:34:31.286Z,24.00
2022-08-05T01:37:24.469Z,23.90
2022-08-05T01:39:55.040Z,23.90
2022-08-05T01:42:29.975Z,23.80
2022-08-05T01:45:02.309Z,23.80
2022-08-05T01:47:39.235Z,23.80
2022-08-05T01:50:15.291Z,23.70
2022-08-05T01:52:50.117Z,23.70
2022-08-05T01:55:22.365Z,23.70
2022-08-05T01:58:10.383Z,23.70
2022-08-05T02:00:44.437Z,23.70
2022-08-05T02:03:35.329Z,23.60
2022-08-05T02:06:33.935Z,23.60
2022-08-05T02:08:58.759Z,23.60
2022-08-05T02:11:33.780Z,23.60
2022-08-05T02:14:12.358Z,23.60
2022-08-05T02:18:27.937Z,23.60
2022-08-05T02:20:16.639Z,23.50
2022-08-05T02:23:00.183Z,23.50
2022-08-05T02:25:33.406Z,23.40
2022-08-05T02:28:08.928Z,23.40
2022-08-05T02:30:54.318Z,23.30
2022-08-05T02:33:24.599Z,23.30
2022-08-05T02:36:05.325Z,23.30
2022-08-05T02:38:35.382Z,23.30
2022-08-05T02:41:06.451Z,23.30
2022-08-05T02:44:02.762Z,23.30
2022-08-05T02:46:53.799Z,23.20
2022-08-05T02:49:36.448Z,23.20
2022-08-05T02:52:09.610Z,23.20
2022-08-05T02:54:42.339Z,23.20
2022-08-05T02:58:11.668Z,23.10
2022-08-05T03:00:08.375Z,23.10
2022-08-05T03:02:39.396Z,23.10
2022-08-05T03:05:10.305Z,23.10
2022-08-05T03:07:59.392Z,23.10
2022-08-05T03:10:27.778Z,23.10
2022-08-05T03:15:24.367Z,23.10
2022-08-05T03:17:57.449Z,23.10
2022-08-05T03:20:25.336Z,23.00
2022-08-05T03:22:57.352Z,23.00
2022-08-05T03:26:03.470Z,23.00
2022-08-05T03:28:18.465Z,23.00
2022-08-05T03:30:48.223Z,23.00
2022-08-05T03:33:17.241Z,23.00
2022-08-05T03:35:47.135Z,23.00
2022-08-05T03:38:16.036Z,23.00
2022-08-05T03:40:48.506Z,23.00
2022-08-05T03:44:09.949Z,23.00
2022-08-05T03:46:05.135Z,23.00
2022-08-05T03:48:36.766Z,23.00
2022-08-05T03:52:50.354Z,23.00
2022-08-05T03:55:07.196Z,23.00
2022-08-05T03:56:50.014Z,23.10
2022-08-05T03:59:24.646Z,23.10
2022-08-05T04:01:58.915Z,23.10
2022-08-05T04:04:28.319Z,23.20
2022-08-05T04:06:56.302Z,23.20
2022-08-05T04:09:25.997Z,23.30
2022-08-05T04:11:56.758Z,23.30
2022-08-05T04:14:30.553Z,23.40
2022-08-05T04:17:00.206Z,23.60
2022-08-05T04:19:31.140Z,24.20
2022-08-05T04:22:10.323Z,24.80
2022-08-05T04:24:52.538Z,25.30
2022-08-05T04:27:33.325Z,25.90
2022-08-05T04:30:09.297Z,26.30
2022-08-05T04:32:36.732Z,26.70
2022-08-05T04:35:05.895Z,27.10
2022-08-05T04:38:02.555Z,27.40
2022-08-05T04:40:20.871Z,27.70
2022-08-05T04:42:48.417Z,28.00
2022-08-05T04:45:22.993Z,28.20
2022-08-05T04:48:18.372Z,28.50
2022-08-05T04:51:03.648Z,28.70
2022-08-05T04:53:38.698Z,28.90
2022-08-05T04:56:33.173Z,29.10
2022-08-05T04:58:57.396Z,29.30
2022-08-05T05:01:33.478Z,29.50
2022-08-05T05:04:12.341Z,29.60
2022-08-05T05:06:49.079Z,29.80
2022-08-05T05:09:17.466Z,29.90
2022-08-05T05:11:54.465Z,30.00
2022-08-05T05:14:27.733Z,30.20
2022-08-05T05:17:00.974Z,30.30
2022-08-05T05:19:36.858Z,30.50
2022-08-05T05:22:24.433Z,30.60
2022-08-05T05:24:59.944Z,30.70
2022-08-05T05:27:44.776Z,30.60
2022-08-05T05:30:30.991Z,30.60
2022-08-05T05:33:09.215Z,30.50
2022-08-05T05:35:48.099Z,30.60
2022-08-05T05:38:22.806Z,30.70
2022-08-05T05:40:58.089Z,30.80
2022-08-05T05:43:54.201Z,30.80
2022-08-05T05:46:17.296Z,30.90
2022-08-05T05:48:48.154Z,31.00
2022-08-05T05:51:23.055Z,31.00
2022-08-05T05:53:58.166Z,31.10
2022-08-05T05:56:32.732Z,31.20
2022-08-05T05:59:06.970Z,31.30
2022-08-05T06:01:39.367Z,31.40
2022-08-05T06:04:12.123Z,31.60
2022-08-05T06:06:46.609Z,31.60
2022-08-05T06:09:24.800Z,31.70
2022-08-05T06:12:01.081Z,31.70
2022-08-05T06:14:31.018Z,31.80
2022-08-05T06:16:59.198Z,31.90
2022-08-05T06:19:34.967Z,32.00
2022-08-05T06:22:04.376Z,32.10
2022-08-05T06:24:35.430Z,32.20
2022-08-05T06:27:03.938Z,32.20
2022-08-05T06:29:52.071Z,32.30
2022-08-05T06:32:26.186Z,32.30
2022-08-05T06:34:57.957Z,32.40
2022-08-05T06:37:56.586Z,32.50
2022-08-05T06:40:20.744Z,32.50
2022-08-05T06:42:51.586Z,32.60
2022-08-05T06:45:44.730Z,32.70
2022-08-05T06:48:44.248Z,32.90
2022-08-05T06:50:57.315Z,32.90
2022-08-05T06:53:28.269Z,33.00
2022-08-05T06:55:58.493Z,33.10
2022-08-05T06:58:34.899Z,33.20
2022-08-05T07:01:06.458Z,33.30
2022-08-05T07:03:34.893Z,33.20
2022-08-05T07:06:08.178Z,33.00
2022-08-05T07:08:48.066Z,32.90
2022-08-05T07:11:22.448Z,32.70
2022-08-05T07:14:20.645Z,32.70
2022-08-05T07:17:59.333Z,32.70
2022-08-05T07:22:36.938Z,32.60
2022-08-05T07:25:23.584Z,32.70
2022-08-05T07:27:57.399Z,32.70
2022-08-05T07:30:32.133Z,32.70
2022-08-05T07:33:09.616Z,32.80
2022-08-05T07:36:03.568Z,32.90
2022-08-05T07:38:34.078Z,32.90
2022-08-05T07:42:07.697Z,32.90
2022-08-05T07:44:00.854Z,32.90
2022-08-05T07:46:30.525Z,32.90
2022-08-05T07:49:01.398Z,33.00
2022-08-05T07:51:36.352Z,33.10
2022-08-05T07:54:08.493Z,33.20
2022-08-05T07:57:00.645Z,33.30
2022-08-05T07:59:38.109Z,33.30
2022-08-05T08:02:16.960Z,33.30
2022-08-05T08:04:49.669Z,33.40
2022-08-05T08:07:22.834Z,33.50
2022-08-05T08:09:52.126Z,33.60
2022-08-05T08:12:35.332Z,33.70
2022-08-05T08:15:09.737Z,33.80
2022-08-05T08:17:49.664Z,33.90
2022-08-05T08:20:42.674Z,34.00
2022-08-05T08:23:07.637Z,34.20
2022-08-05T08:26:00.435Z,34.40
2022-08-05T08:28:36.204Z,34.40
2022-08-05T08:31:06.994Z,34.60
2022-08-05T08:33:36.150Z,34.80
2022-08-05T08:36:29.507Z,34.90
2022-08-05T08:38:55.841Z,35.00
2022-08-05T08:41:51.324Z,35.00
2022-08-05T08:45:24.220Z,35.10
2022-08-05T08:47:21.918Z,35.10
2022-08-05T08:50:05.937Z,35.20
2022-08-05T08:52:51.814Z,35.10
2022-08-05T08:56:02.848Z,35.10
2022-08-05T08:58:10.702Z,35.20
2022-08-05T09:00:42.247Z,35.30
2022-08-05T09:03:11.872Z,35.30
2022-08-05T09:06:08.949Z,35.50
2022-08-05T09:08:31.129Z,35.70
2022-08-05T09:10:58.914Z,35.90
2022-08-05T09:13:31.829Z,36.00
2022-08-05T09:16:16.795Z,36.00
2022-08-05T09:18:44.628Z,36.00
2022-08-05T09:21:21.280Z,36.00
2022-08-05T09:24:10.214Z,36.10
2022-08-05T09:26:37.941Z,36.20
2022-08-05T09:29:08.958Z,36.40
2022-08-05T09:32:41.064Z,36.50
2022-08-05T09:34:26.138Z,36.60
2022-08-05T09:36:55.805Z,36.70
2022-08-05T09:39:39.453Z,36.70
2022-08-05T09:42:20.233Z,36.70
2022-08-05T09:44:56.709Z,37.00
2022-08-05T09:47:34.896Z,37.10
2022-08-05T09:50:18.032Z,37.10
2022-08-05T09:53:02.173Z,37.10
2022-08-05T09:55:58.138Z,37.20
2022-08-05T09:58:23.989Z,37.30
2022-08-05T10:00:59.264Z,37.50
2022-08-05T10:03:56.650Z,37.70
2022-08-05T10:06:20.730Z,37.70
2022-08-05T10:08:50.401Z,37.80
2022-08-05T10:11:21.964Z,37.90
2022-08-05T10:13:54.532Z,38.00
2022-08-05T10:16:42.075Z,37.90
2022-08-05T10:19:23.467Z,37.80
2022-08-05T10:21:59.215Z,37.80
2022-08-05T10:24:27.401Z,37.80
2022-08-05T10:27:00.478Z,37.70
2022-08-05T10:30:06.784Z,37.80
2022-08-05T10:32:54.432Z,37.90
2022-08-05T10:35:08.431Z,38.00
2022-08-05T10:37:44.752Z,38.10
2022-08-05T10:40:58.089Z,38.10
2022-08-05T10:43:43.651Z,38.20
2022-08-05T10:49:01.546Z,38.40
2022-08-05T10:51:57.474Z,38.40
2022-08-05T10:55:03.055Z,38.40
2022-08-05T10:57:34.021Z,38.40
2022-08-05T11:00:18.137Z,38.40
2022-08-05T11:03:25.348Z,38.40
2022-08-05T11:06:15.531Z,38.40
2022-08-05T11:09:16.276Z,38.40
2022-08-05T11:11:52.903Z,38.60
2022-08-05T11:14:56.326Z,38.70
2022-08-05T11:18:00.151Z,38.60
2022-08-05T11:20:39.192Z,38.70
2022-08-05T11:24:05.352Z,38.80
2022-08-05T11:26:40.558Z,38.80
2022-08-05T11:29:34.750Z,38.80
2022-08-05T11:32:26.416Z,38.70
2022-08-05T11:34:54.658Z,38.70
2022-08-05T11:38:27.961Z,38.80
2022-08-05T11:41:00.412Z,38.80
2022-08-05T11:44:00.706Z,38.70
2022-08-05T11:46:32.223Z,38.80
2022-08-05T11:49:01.552Z,39.00
2022-08-05T11:51:44.648Z,39.10
2022-08-05T11:54:34.406Z,39.10
2022-08-05T11:57:08.661Z,39.10
2022-08-05T11:59:52.503Z,38.90
2022-08-05T12:02:31.999Z,38.90
2022-08-05T12:05:06.787Z,38.80
2022-08-05T12:08:03.468Z,38.80
2022-08-05T12:10:43.651Z,38.70
2022-08-05T12:13:18.513Z,38.50
2022-08-05T12:15:56.135Z,38.40
2022-08-05T12:18:34.437Z,38.40
2022-08-05T12:21:33.627Z,38.60
2022-08-05T12:24:27.779Z,38.60
2022-08-05T12:26:55.277Z,38.80
2022-08-05T12:29:25.660Z,39.20
2022-08-05T12:32:02.286Z,39.30
2022-08-05T12:34:35.733Z,39.30
2022-08-05T12:37:17.555Z,39.30
2022-08-05T12:39:51.992Z,39.50
2022-08-05T12:42:21.882Z,39.50
2022-08-05T12:44:52.957Z,39.50
2022-08-05T12:47:28.780Z,39.60
2022-08-05T12:50:04.071Z,39.70
2022-08-05T12:52:39.093Z,39.70
2022-08-05T12:55:22.100Z,39.80
2022-08-05T12:58:38.553Z,39.90
2022-08-05T13:02:01.452Z,39.70
2022-08-05T13:03:42.329Z,39.60
2022-08-05T13:06:17.130Z,39.40
2022-08-05T13:08:51.469Z,39.30
2022-08-05T13:11:59.643Z,39.10
2022-08-05T13:14:19.339Z,39.20
2022-08-05T13:16:50.269Z,39.30
2022-08-05T13:19:20.161Z,39.50
2022-08-05T13:21:52.424Z,39.60
2022-08-05T13:24:27.665Z,39.70
2022-08-05T13:27:17.181Z,39.80
2022-08-05T13:30:33.862Z,39.90
2022-08-05T13:32:50.728Z,39.90
2022-08-05T13:35:22.191Z,39.80
2022-08-05T13:37:59.009Z,39.60
2022-08-05T13:40:48.124Z,39.50
2022-08-05T13:43:22.164Z,39.40
2022-08-05T13:45:50.675Z,39.40
2022-08-05T13:48:57.440Z,39.50
2022-08-05T13:51:11.135Z,39.50
2022-08-05T13:53:47.451Z,39.50
2022-08-05T13:56:19.124Z,39.40
2022-08-05T13:58:52.963Z,39.30
2022-08-05T14:01:24.703Z,39.20
2022-08-05T14:04:26.692Z,39.10
2022-08-05T14:07:11.872Z,39.10
2022-08-05T14:09:46.050Z,39.20
2022-08-05T14:12:17.860Z,39.30
2022-08-05T14:14:59.660Z,39.40
2022-08-05T14:17:28.493Z,39.60
2022-08-05T14:20:00.944Z,39.70
2022-08-05T14:22:34.332Z,39.70
2022-08-05T14:25:06.357Z,39.80
2022-08-05T14:27:48.521Z,39.60
2022-08-05T14:30:20.077Z,39.50
2022-08-05T14:33:09.547Z,39.50
2022-08-05T14:35:51.542Z,39.30
2022-08-05T14:38:27.864Z,39.20
2022-08-05T14:41:06.221Z,39.00
2022-08-05T14:43:58.833Z,38.90
2022-08-05T14:46:28.324Z,38.80
2022-08-05T14:48:57.826Z,38.90
2022-08-05T14:51:28.327Z,39.00
2022-08-05T14:54:26.619Z,39.00
2022-08-05T14:56:47.658Z,39.00
2022-08-05T14:59:15.794Z,39.10
2022-08-05T15:01:49.141Z,39.20
2022-08-05T15:04:20.297Z,39.30
2022-08-05T15:06:49.764Z,39.30
2022-08-05T15:09:52.170Z,39.30
2022-08-05T15:12:11.530Z,39.20
2022-08-05T15:14:49.895Z,39.00
2022-08-05T15:17:46.550Z,38.80
2022-08-05T15:20:18.464Z,38.70
2022-08-05T15:22:52.141Z,38.70
2022-08-05T15:25:23.508Z,38.80
2022-08-05T15:28:08.057Z,38.80
2022-08-05T15:30:40.756Z,38.70
2022-08-05T15:33:11.736Z,38.60
2022-08-05T15:35:45.384Z,38.50
2022-08-05T15:38:35.317Z,38.50
2022-08-05T15:41:21.832Z,38.60
2022-08-05T15:43:48.661Z,38.60
2022-08-05T15:46:16.150Z,38.60
2022-08-05T15:48:46.823Z,38.60
2022-08-05T15:52:09.823Z,38.50
2022-08-05T15:54:15.154Z,38.30
2022-08-05T15:56:43.678Z,38.20
2022-08-05T15:59:21.681Z,38.10
2022-08-05T16:01:52.957Z,38.10
2022-08-05T16:04:25.383Z,38.00
2022-08-05T16:06:56.806Z,37.90
2022-08-05T16:09:25.765Z,37.80
2022-08-05T16:11:54.159Z,37.70
2022-08-05T16:14:22.699Z,37.60
2022-08-05T16:16:50.671Z,37.60
2022-08-05T16:19:25.475Z,37.60
2022-08-05T16:22:07.520Z,37.60
2022-08-05T16:24:40.047Z,37.60
2022-08-05T16:27:09.499Z,37.60
2022-08-05T16:29:37.883Z,37.60
2022-08-05T16:32:09.969Z,37.60
2022-08-05T16:34:39.333Z,37.60
2022-08-05T16:38:02.721Z,37.60
2022-08-05T16:40:05.917Z,37.50
2022-08-05T16:42:34.863Z,37.50
2022-08-05T16:45:06.100Z,37.40
2022-08-05T16:47:54.872Z,37.40
2022-08-05T16:50:26.075Z,37.30
2022-08-05T16:52:53.487Z,37.30
2022-08-05T16:55:24.501Z,37.30
2022-08-05T16:57:59.817Z,37.20
2022-08-05T17:00:34.357Z,37.10
2022-08-05T17:03:03.808Z,37.10
2022-08-05T17:05:37.111Z,37.00
2022-08-05T17:08:05.417Z,36.90
2022-08-05T17:10:35.817Z,36.80
2022-08-05T17:13:05.134Z,36.70
2022-08-05T17:15:48.480Z,36.60
2022-08-05T17:18:18.917Z,36.50
2022-08-05T17:20:46.598Z,36.40
2022-08-05T17:24:02.429Z,36.40
2022-08-05T17:26:02.215Z,36.30
2022-08-05T17:28:30.022Z,36.30
2022-08-05T17:30:57.448Z,36.20
2022-08-05T17:33:25.954Z,36.20
2022-08-05T17:36:07.465Z,36.20
2022-08-05T17:38:37.548Z,36.10
2022-08-05T17:41:22.944Z,36.10
2022-08-05T17:43:55.928Z,36.00
2022-08-05T17:46:25.298Z,35.90
2022-08-05T17:48:52.803Z,35.90
2022-08-05T17:51:21.737Z,35.80
2022-08-05T17:53:50.731Z,35.80
2022-08-05T17:56:22.711Z,35.70
2022-08-05T17:58:51.245Z,35.60
2022-08-05T18:01:20.399Z,35.50
2022-08-05T18:03:56.296Z,35.40
2022-08-05T18:06:31.356Z,35.30
2022-08-05T18:08:58.964Z,35.20
2022-08-05T18:11:32.521Z,35.10
2022-08-05T18:14:07.444Z,35.00
2022-08-05T18:16:51.205Z,34.90
2022-08-05T18:19:23.019Z,34.80
2022-08-05T18:22:09.166Z,34.60
2022-08-05T18:24:39.512Z,34.60
2022-08-05T18:27:12.551Z,34.50
2022-08-05T18:29:52.013Z,34.40
2022-08-05T18:32:27.717Z,34.20
2022-08-05T18:34:56.548Z,34.10
2022-08-05T18:37:34.308Z,34.00
2022-08-05T18:40:33.725Z,33.90
2022-08-05T18:42:59.145Z,33.80
2022-08-05T18:45:41.295Z,33.80
2022-08-05T18:48:11.339Z,33.70
2022-08-05T18:51:01.633Z,33.60
2022-08-05T18:53:29.892Z,33.60
2022-08-05T18:56:02.262Z,33.50
2022-08-05T18:58:39.992Z,33.40
2022-08-05T19:01:10.572Z,33.30
2022-08-05T19:03:55.662Z,33.20
2022-08-05T19:06:34.377Z,33.10
2022-08-05T19:09:29.698Z,33.00
2022-08-05T19:12:08.226Z,32.90
2022-08-05T19:14:59.811Z,32.80
2022-08-05T19:17:28.489Z,32.70
2022-08-05T19:20:15.072Z,32.60
2022-08-05T19:22:43.502Z,32.60
2022-08-05T19:25:11.207Z,32.60
2022-08-05T19:27:57.643Z,32.50
2022-08-05T19:30:47.195Z,32.50
2022-08-05T19:33:17.151Z,32.40
2022-08-05T19:36:06.041Z,32.20
2022-08-05T19:38:37.287Z,32.10
2022-08-05T19:41:07.402Z,32.00
2022-08-05T19:44:06.954Z,31.80
2022-08-05T19:46:30.278Z,31.60
2022-08-05T19:49:03.605Z,31.60
2022-08-05T19:52:05.976Z,31.50
2022-08-05T19:54:31.226Z,31.50
2022-08-05T19:57:02.052Z,31.50
2022-08-05T19:59:54.891Z,31.50
2022-08-05T20:02:19.795Z,31.40
2022-08-05T20:04:48.427Z,31.40
2022-08-05T20:07:48.358Z,31.30
2022-08-05T20:10:13.968Z,31.20
2022-08-05T20:12:48.284Z,31.20
2022-08-05T20:15:23.119Z,31.10
2022-08-05T20:18:10.457Z,31.00
2022-08-05T20:20:56.167Z,31.00
2022-08-05T20:23:40.686Z,31.00
2022-08-05T20:26:17.078Z,30.90
2022-08-05T20:28:50.707Z,30.90
2022-08-05T20:31:36.960Z,30.90
2022-08-05T20:34:10.771Z,30.80
2022-08-05T20:36:38.983Z,30.70
2022-08-05T20:39:13.132Z,30.60
2022-08-05T20:41:44.500Z,30.60
2022-08-05T20:44:29.523Z,30.50
2022-08-05T20:46:59.209Z,30.50
2022-08-05T20:49:27.227Z,30.40
2022-08-05T20:51:55.797Z,30.40
2022-08-05T20:54:58.975Z,30.30
2022-08-05T20:57:42.362Z,30.20
2022-08-05T21:00:19.756Z,30.20
2022-08-05T21:02:56.101Z,30.10
2022-08-05T21:05:24.995Z,30.00
2022-08-05T21:07:52.595Z,30.00
2022-08-05T21:10:21.557Z,30.00
2022-08-05T21:12:58.132Z,29.90
2022-08-05T21:15:36.724Z,29.90
2022-08-05T21:18:04.838Z,29.90
2022-08-05T21:20:32.831Z,29.90
2022-08-05T21:23:01.287Z,29.90
2022-08-05T21:25:33.892Z,29.90
2022-08-05T21:28:03.505Z,29.90
2022-08-05T21:30:31.913Z,29.90
2022-08-05T21:33:01.866Z,29.90
2022-08-05T21:35:56.020Z,29.90
2022-08-05T21:38:17.787Z,29.90
2022-08-05T21:40:45.260Z,29.90
2022-08-05T21:43:24.146Z,29.90
2022-08-05T21:45:57.972Z,29.90
2022-08-05T21:48:28.856Z,29.90
2022-08-05T21:50:57.257Z,29.80
2022-08-05T21:53:27.630Z,29.90
2022-08-05T21:56:06.316Z,29.80
2022-08-05T21:58:48.393Z,29.80
2022-08-05T22:01:25.655Z,29.80
2022-08-05T22:03:53.848Z,29.70
2022-08-05T22:06:34.755Z,29.60
2022-08-05T22:09:13.160Z,29.50
2022-08-05T22:11:41.601Z,29.50
2022-08-05T22:14:35.572Z,29.50
2022-08-05T22:17:03.757Z,29.50
2022-08-05T22:19:57.461Z,29.60
2022-08-05T22:22:27.128Z,29.60
2022-08-05T22:25:27.270Z,29.60
2022-08-05T22:28:09.741Z,29.60
2022-08-05T22:30:55.578Z,29.70
2022-08-05T22:33:55.428Z,29.70
2022-08-05T22:36:14.470Z,29.70
2022-08-05T22:38:48.461Z,29.70
2022-08-05T22:42:05.043Z,29.70
2022-08-05T22:44:08.487Z,29.80
2022-08-05T22:46:39.474Z,29.80
2022-08-05T22:50:17.275Z,29.80
2022-08-05T22:52:05.805Z,29.80
2022-08-05T22:54:36.409Z,29.80
2022-08-05T22:57:05.840Z,29.70
2022-08-05T22:59:48.559Z,29.60
2022-08-05T23:02:29.742Z,29.60
2022-08-05T23:05:02.108Z,29.60
2022-08-05T23:07:44.065Z,29.60
2022-08-05T23:10:19.461Z,29.50
2022-08-05T23:12:54.485Z,29.40
2022-08-05T23:15:29.820Z,29.30
2022-08-05T23:18:03.143Z,29.20
2022-08-05T23:20:32.422Z,29.10
2022-08-05T23:23:03.613Z,29.10
2022-08-05T23:25:53.249Z,29.00
2022-08-05T23:28:27.632Z,29.00
2022-08-05T23:31:16.338Z,29.10
2022-08-05T23:34:05.071Z,29.10
2022-08-05T23:36:39.997Z,29.10
2022-08-05T23:39:17.303Z,29.20
2022-08-05T23:41:52.073Z,29.20
2022-08-05T23:44:25.198Z,29.30
2022-08-05T23:47:02.559Z,29.20
2022-08-05T23:49:45.721Z,29.30
2022-08-05T23:52:36.244Z,29.30
2022-08-05T23:55:19.110Z,29.30
2022-08-05T23:57:51.106Z,29.30
